sensor_id;sensor_type;location;lat;lon;timestamp;temperature;humidity
20833;DHT22;56075;51.264;7.150;2023-02-15T02:04:29;4.20;99.90
20833;DHT22;56075;51.264;7.150;2023-02-15T02:23:00;3.90;99.90
20833;DHT22;56075;51.264;7.150;2023-02-15T02:52:42;3.70;99.90
20833;DHT22;56075;51.264;7.150;2023-02-15T03:08:11;3.40;99.90
20833;DHT22;56075;51.264;7.150;2023-02-15T03:13:18;3.40;99.90
20833;DHT22;56075;51.264;7.150;2023-02-15T03:26:48;3.30;99.90
20833;DHT22;56075;51.264;7.150;2023-02-15T03:43:30;3.00;99.90
20833;DHT22;56075;51.264;7.150;2023-02-15T03:48:44;3.00;99.90
20833;DHT22;56075;51.264;7.150;2023-02-15T03:54:29;3.00;99.90
20833;DHT22;56075;51.264;7.150;2023-02-15T04:16:03;3.00;99.90
20833;DHT22;56075;51.264;7.150;2023-02-15T04:32:11;2.90;99.90
20833;DHT22;56075;51.264;7.150;2023-02-15T04:34:42;2.90;99.90
20833;DHT22;56075;51.264;7.150;2023-02-15T04:49:51;2.90;99.90
20833;DHT22;56075;51.264;7.150;2023-02-15T04:57:25;3.10;99.90
20833;DHT22;56075;51.264;7.150;2023-02-15T04:59:56;2.90;99.90
20833;DHT22;56075;51.264;7.150;2023-02-15T05:05:00;3.10;99.90
20833;DHT22;56075;51.264;7.150;2023-02-15T08:39:34;4.40;99.90
20833;DHT22;56075;51.264;7.150;2023-02-15T08:59:46;5.30;99.90
20833;DHT22;56075;51.264;7.150;2023-02-15T09:02:17;5.20;99.90
20833;DHT22;56075;51.264;7.150;2023-02-15T09:04:48;5.10;99.90
20833;DHT22;56075;51.264;7.150;2023-02-15T09:13:30;5.50;99.90
20833;DHT22;56075;51.264;7.150;2023-02-15T09:16:06;5.60;99.90
20833;DHT22;56075;51.264;7.150;2023-02-15T09:23:48;6.10;99.90
20833;DHT22;56075;51.264;7.150;2023-02-15T09:31:28;6.40;99.90
20833;DHT22;56075;51.264;7.150;2023-02-15T10:26:47;9.10;99.90
20833;DHT22;56075;51.264;7.150;2023-02-15T10:32:24;9.30;99.90
20833;DHT22;56075;51.264;7.150;2023-02-15T10:46:50;9.90;99.90
20833;DHT22;56075;51.264;7.150;2023-02-15T10:49:51;9.70;99.90
20833;DHT22;56075;51.264;7.150;2023-02-15T11:02:01;10.20;99.90
20833;DHT22;56075;51.264;7.150;2023-02-15T11:07:22;10.30;99.90
20833;DHT22;56075;51.264;7.150;2023-02-15T11:12:45;10.40;99.90
20833;DHT22;56075;51.264;7.150;2023-02-15T11:15:38;10.60;99.90
20833;DHT22;56075;51.264;7.150;2023-02-15T11:18:19;10.80;99.90
20833;DHT22;56075;51.264;7.150;2023-02-15T11:21:01;10.90;99.90
20833;DHT22;56075;51.264;7.150;2023-02-15T11:23:35;10.80;99.90
20833;DHT22;56075;51.264;7.150;2023-02-15T11:26:16;10.90;99.90
20833;DHT22;56075;51.264;7.150;2023-02-15T11:29:01;12.00;99.90
20833;DHT22;56075;51.264;7.150;2023-02-15T11:31:51;11.00;99.90
20833;DHT22;56075;51.264;7.150;2023-02-15T11:37:05;11.10;99.90
20833;DHT22;56075;51.264;7.150;2023-02-15T11:39:37;11.10;99.90
20833;DHT22;56075;51.264;7.150;2023-02-15T11:42:14;11.30;99.90
20833;DHT22;56075;51.264;7.150;2023-02-15T11:47:19;11.50;99.90
20833;DHT22;56075;51.264;7.150;2023-02-15T11:49:50;11.60;99.90
20833;DHT22;56075;51.264;7.150;2023-02-15T11:52:21;11.60;99.90
20833;DHT22;56075;51.264;7.150;2023-02-15T11:54:53;11.60;99.90
20833;DHT22;56075;51.264;7.150;2023-02-15T11:57:33;11.60;99.90
20833;DHT22;56075;51.264;7.150;2023-02-15T12:00:19;11.70;99.90
20833;DHT22;56075;51.264;7.150;2023-02-15T12:02:54;11.80;99.90
20833;DHT22;56075;51.264;7.150;2023-02-15T12:05:28;12.00;99.90
20833;DHT22;56075;51.264;7.150;2023-02-15T12:08:08;11.80;99.90
20833;DHT22;56075;51.264;7.150;2023-02-15T12:10:58;11.80;99.80
20833;DHT22;56075;51.264;7.150;2023-02-15T12:13:31;12.00;99.20
20833;DHT22;56075;51.264;7.150;2023-02-15T12:16:06;12.10;99.30
20833;DHT22;56075;51.264;7.150;2023-02-15T12:18:40;12.00;99.30
20833;DHT22;56075;51.264;7.150;2023-02-15T12:21:15;12.20;99.50
20833;DHT22;56075;51.264;7.150;2023-02-15T12:24:18;12.20;99.30
20833;DHT22;56075;51.264;7.150;2023-02-15T12:27:03;12.50;99.30
20833;DHT22;56075;51.264;7.150;2023-02-15T12:29:40;12.70;98.90
20833;DHT22;56075;51.264;7.150;2023-02-15T12:32:24;12.40;98.80
20833;DHT22;56075;51.264;7.150;2023-02-15T12:35:07;12.50;98.70
20833;DHT22;56075;51.264;7.150;2023-02-15T12:37:54;12.60;98.80
20833;DHT22;56075;51.264;7.150;2023-02-15T12:40:28;12.70;98.20
20833;DHT22;56075;51.264;7.150;2023-02-15T12:42:59;13.00;98.60
20833;DHT22;56075;51.264;7.150;2023-02-15T12:45:33;13.10;98.40
20833;DHT22;56075;51.264;7.150;2023-02-15T12:50:41;13.20;97.90
20833;DHT22;56075;51.264;7.150;2023-02-15T12:53:22;14.70;98.30
20833;DHT22;56075;51.264;7.150;2023-02-15T12:56:05;13.30;97.70
20833;DHT22;56075;51.264;7.150;2023-02-15T12:58:39;13.30;97.40
20833;DHT22;56075;51.264;7.150;2023-02-15T13:01:18;13.30;97.20
20833;DHT22;56075;51.264;7.150;2023-02-15T13:04:00;13.30;97.00
20833;DHT22;56075;51.264;7.150;2023-02-15T13:06:34;13.20;96.60
20833;DHT22;56075;51.264;7.150;2023-02-15T13:09:20;14.00;97.10
20833;DHT22;56075;51.264;7.150;2023-02-15T13:11:51;13.40;96.60
20833;DHT22;56075;51.264;7.150;2023-02-15T13:14:31;13.30;96.50
20833;DHT22;56075;51.264;7.150;2023-02-15T13:17:04;13.40;96.40
20833;DHT22;56075;51.264;7.150;2023-02-15T13:19:47;13.40;96.30
20833;DHT22;56075;51.264;7.150;2023-02-15T13:22:22;13.50;96.00
20833;DHT22;56075;51.264;7.150;2023-02-15T13:24:58;14.20;96.30
20833;DHT22;56075;51.264;7.150;2023-02-15T13:27:37;13.70;95.90
20833;DHT22;56075;51.264;7.150;2023-02-15T13:32:59;13.60;95.20
20833;DHT22;56075;51.264;7.150;2023-02-15T13:35:45;13.90;95.50
20833;DHT22;56075;51.264;7.150;2023-02-15T13:38:41;13.90;94.90
20833;DHT22;56075;51.264;7.150;2023-02-15T13:44:50;14.00;94.50
20833;DHT22;56075;51.264;7.150;2023-02-15T13:47:35;14.10;94.40
20833;DHT22;56075;51.264;7.150;2023-02-15T13:55:52;14.50;94.30
20833;DHT22;56075;51.264;7.150;2023-02-15T14:10:03;14.80;93.20
20833;DHT22;56075;51.264;7.150;2023-02-15T14:15:48;15.20;93.00
20833;DHT22;56075;51.264;7.150;2023-02-15T14:21:30;15.50;92.60
20833;DHT22;56075;51.264;7.150;2023-02-15T14:26:47;15.80;92.30
20833;DHT22;56075;51.264;7.150;2023-02-15T14:32:42;16.00;91.30
20833;DHT22;56075;51.264;7.150;2023-02-15T14:35:18;16.30;91.30
20833;DHT22;56075;51.264;7.150;2023-02-15T14:41:02;16.50;90.10
20833;DHT22;56075;51.264;7.150;2023-02-15T14:46:50;17.20;89.50
20833;DHT22;56075;51.264;7.150;2023-02-15T14:49:27;17.40;90.10
20833;DHT22;56075;51.264;7.150;2023-02-15T14:52:09;17.50;89.40
20833;DHT22;56075;51.264;7.150;2023-02-15T14:59:59;17.80;87.40
20833;DHT22;56075;51.264;7.150;2023-02-15T15:02:49;17.90;87.00
20833;DHT22;56075;51.264;7.150;2023-02-15T15:05:34;18.00;86.70
20833;DHT22;56075;51.264;7.150;2023-02-15T15:08:06;17.80;86.20
20833;DHT22;56075;51.264;7.150;2023-02-15T15:10:40;17.90;86.40
20833;DHT22;56075;51.264;7.150;2023-02-15T15:18:59;17.40;85.00
20833;DHT22;56075;51.264;7.150;2023-02-15T15:27:37;16.90;86.50
20833;DHT22;56075;51.264;7.150;2023-02-15T15:38:51;16.10;87.40
20833;DHT22;56075;51.264;7.150;2023-02-15T15:41:46;15.80;88.30
20833;DHT22;56075;51.264;7.150;2023-02-15T15:49:40;15.40;89.20
20833;DHT22;56075;51.264;7.150;2023-02-15T15:52:17;15.40;90.20
20833;DHT22;56075;51.264;7.150;2023-02-15T15:54:57;15.20;90.30
20833;DHT22;56075;51.264;7.150;2023-02-15T15:57:38;14.80;90.40
20833;DHT22;56075;51.264;7.150;2023-02-15T16:03:30;14.50;90.50
20833;DHT22;56075;51.264;7.150;2023-02-15T16:06:01;14.90;91.10
20833;DHT22;56075;51.264;7.150;2023-02-15T16:08:38;14.30;91.20
20833;DHT22;56075;51.264;7.150;2023-02-15T16:11:14;14.30;91.50
20833;DHT22;56075;51.264;7.150;2023-02-15T16:13:47;14.10;91.70
20833;DHT22;56075;51.264;7.150;2023-02-15T16:16:24;15.00;91.90
20833;DHT22;56075;51.264;7.150;2023-02-15T16:18:59;13.90;92.10
20833;DHT22;56075;51.264;7.150;2023-02-15T16:21:33;13.60;92.10
20833;DHT22;56075;51.264;7.150;2023-02-15T16:27:14;13.40;92.40
20833;DHT22;56075;51.264;7.150;2023-02-15T16:29:48;13.30;92.60
20833;DHT22;56075;51.264;7.150;2023-02-15T16:32:26;13.50;93.10
20833;DHT22;56075;51.264;7.150;2023-02-15T16:35:00;13.10;92.90
20833;DHT22;56075;51.264;7.150;2023-02-15T16:37:34;14.30;93.90
20833;DHT22;56075;51.264;7.150;2023-02-15T16:40:06;12.90;93.70
20833;DHT22;56075;51.264;7.150;2023-02-15T16:42:37;12.70;93.70
20833;DHT22;56075;51.264;7.150;2023-02-15T16:45:13;12.70;93.90
20833;DHT22;56075;51.264;7.150;2023-02-15T16:47:50;10.90;93.80
20833;DHT22;56075;51.264;7.150;2023-02-15T16:50:29;13.50;94.80
20833;DHT22;56075;51.264;7.150;2023-02-15T16:53:04;12.50;94.80
20833;DHT22;56075;51.264;7.150;2023-02-15T16:55:41;12.20;94.90
20833;DHT22;56075;51.264;7.150;2023-02-15T16:58:15;12.20;95.10
20833;DHT22;56075;51.264;7.150;2023-02-15T17:00:48;12.00;95.20
20833;DHT22;56075;51.264;7.150;2023-02-15T17:03:23;12.10;95.30
20833;DHT22;56075;51.264;7.150;2023-02-15T17:06:00;11.90;95.60
20833;DHT22;56075;51.264;7.150;2023-02-15T17:08:51;11.80;95.70
20833;DHT22;56075;51.264;7.150;2023-02-15T17:11:34;11.70;95.90
20833;DHT22;56075;51.264;7.150;2023-02-15T17:16:44;11.60;96.20
20833;DHT22;56075;51.264;7.150;2023-02-15T17:22:04;11.50;96.20
20833;DHT22;56075;51.264;7.150;2023-02-15T17:24:43;11.00;96.20
20833;DHT22;56075;51.264;7.150;2023-02-15T17:27:26;11.20;97.10
20833;DHT22;56075;51.264;7.150;2023-02-15T17:30:15;11.00;97.10
20833;DHT22;56075;51.264;7.150;2023-02-15T17:32:57;11.00;97.30
20833;DHT22;56075;51.264;7.150;2023-02-15T17:35:33;10.80;97.40
20833;DHT22;56075;51.264;7.150;2023-02-15T17:38:20;10.60;97.00
20833;DHT22;56075;51.264;7.150;2023-02-15T17:40:51;10.70;97.70
20833;DHT22;56075;51.264;7.150;2023-02-15T17:43:22;10.80;98.70
20833;DHT22;56075;51.264;7.150;2023-02-15T17:45:54;10.50;97.80
20833;DHT22;56075;51.264;7.150;2023-02-15T17:48:34;10.50;97.90
20833;DHT22;56075;51.264;7.150;2023-02-15T17:51:10;10.50;98.20
20833;DHT22;56075;51.264;7.150;2023-02-15T17:53:43;10.40;98.20
20833;DHT22;56075;51.264;7.150;2023-02-15T17:56:34;10.30;98.00
20833;DHT22;56075;51.264;7.150;2023-02-15T17:59:06;10.40;98.40
20833;DHT22;56075;51.264;7.150;2023-02-15T18:01:45;10.30;98.30
20833;DHT22;56075;51.264;7.150;2023-02-15T18:04:36;10.40;99.50
20833;DHT22;56075;51.264;7.150;2023-02-15T18:07:26;10.50;98.50
20833;DHT22;56075;51.264;7.150;2023-02-15T18:10:17;10.30;98.10
20833;DHT22;56075;51.264;7.150;2023-02-15T18:13:07;10.80;99.00
20833;DHT22;56075;51.264;7.150;2023-02-15T18:15:38;10.30;98.70
20833;DHT22;56075;51.264;7.150;2023-02-15T18:18:11;10.40;98.80
20833;DHT22;56075;51.264;7.150;2023-02-15T18:20:43;10.20;99.00
20833;DHT22;56075;51.264;7.150;2023-02-15T18:23:14;10.10;99.90
20833;DHT22;56075;51.264;7.150;2023-02-15T18:25:46;10.10;99.90
20833;DHT22;56075;51.264;7.150;2023-02-15T18:28:17;10.10;99.00
20833;DHT22;56075;51.264;7.150;2023-02-15T18:30:48;10.10;99.90
20833;DHT22;56075;51.264;7.150;2023-02-15T18:33:48;10.00;99.10
20833;DHT22;56075;51.264;7.150;2023-02-15T18:36:27;10.10;99.90
20833;DHT22;56075;51.264;7.150;2023-02-15T18:38:59;10.00;99.90
20833;DHT22;56075;51.264;7.150;2023-02-15T18:41:31;9.90;99.90
20833;DHT22;56075;51.264;7.150;2023-02-15T18:44:06;9.90;99.50
20833;DHT22;56075;51.264;7.150;2023-02-15T18:46:39;9.80;99.60
20833;DHT22;56075;51.264;7.150;2023-02-15T18:49:10;9.90;99.90
20833;DHT22;56075;51.264;7.150;2023-02-15T18:51:41;9.80;99.80
20833;DHT22;56075;51.264;7.150;2023-02-15T18:54:22;9.90;99.90
20833;DHT22;56075;51.264;7.150;2023-02-15T18:56:57;9.70;99.90
20833;DHT22;56075;51.264;7.150;2023-02-15T18:59:28;9.80;99.90
20833;DHT22;56075;51.264;7.150;2023-02-15T19:02:01;9.80;99.90
20833;DHT22;56075;51.264;7.150;2023-02-15T19:04:32;9.70;99.90
20833;DHT22;56075;51.264;7.150;2023-02-15T19:07:03;9.50;99.90
20833;DHT22;56075;51.264;7.150;2023-02-15T19:09:35;9.70;99.90
20833;DHT22;56075;51.264;7.150;2023-02-15T19:12:10;9.70;99.90
20833;DHT22;56075;51.264;7.150;2023-02-15T19:14:43;9.60;99.90
20833;DHT22;56075;51.264;7.150;2023-02-15T19:17:16;9.70;99.90
20833;DHT22;56075;51.264;7.150;2023-02-15T19:19:50;9.60;99.90
20833;DHT22;56075;51.264;7.150;2023-02-15T19:22:29;9.60;99.90
20833;DHT22;56075;51.264;7.150;2023-02-15T19:25:02;9.30;99.90
20833;DHT22;56075;51.264;7.150;2023-02-15T19:27:35;9.50;99.90
20833;DHT22;56075;51.264;7.150;2023-02-15T19:30:29;9.50;99.90
20833;DHT22;56075;51.264;7.150;2023-02-15T19:33:01;9.50;99.90
20833;DHT22;56075;51.264;7.150;2023-02-15T19:35:35;9.60;99.90
20833;DHT22;56075;51.264;7.150;2023-02-15T19:38:13;9.40;99.90
20833;DHT22;56075;51.264;7.150;2023-02-15T19:40:46;9.40;99.90
20833;DHT22;56075;51.264;7.150;2023-02-15T19:43:19;9.40;99.90
20833;DHT22;56075;51.264;7.150;2023-02-15T19:45:53;9.40;99.90
20833;DHT22;56075;51.264;7.150;2023-02-15T19:48:24;9.40;99.90
20833;DHT22;56075;51.264;7.150;2023-02-15T19:50:55;9.40;99.90
20833;DHT22;56075;51.264;7.150;2023-02-15T19:53:28;9.30;99.90
20833;DHT22;56075;51.264;7.150;2023-02-15T19:55:59;9.30;99.90
20833;DHT22;56075;51.264;7.150;2023-02-15T19:58:30;9.30;99.90
20833;DHT22;56075;51.264;7.150;2023-02-15T20:01:03;9.40;99.90
20833;DHT22;56075;51.264;7.150;2023-02-15T20:03:35;9.30;99.90
20833;DHT22;56075;51.264;7.150;2023-02-15T20:06:13;9.10;99.90
20833;DHT22;56075;51.264;7.150;2023-02-15T20:08:45;9.10;99.90
20833;DHT22;56075;51.264;7.150;2023-02-15T20:11:16;9.10;99.90
20833;DHT22;56075;51.264;7.150;2023-02-15T20:13:47;9.00;99.90
20833;DHT22;56075;51.264;7.150;2023-02-15T20:16:18;8.70;99.90
20833;DHT22;56075;51.264;7.150;2023-02-15T20:21:21;8.90;99.90
20833;DHT22;56075;51.264;7.150;2023-02-15T20:23:54;10.90;99.90
20833;DHT22;56075;51.264;7.150;2023-02-15T20:29:00;8.60;99.90
20833;DHT22;56075;51.264;7.150;2023-02-15T20:31:31;8.60;99.90
20833;DHT22;56075;51.264;7.150;2023-02-15T20:34:03;8.60;99.90
20833;DHT22;56075;51.264;7.150;2023-02-15T20:36:34;8.70;99.90
20833;DHT22;56075;51.264;7.150;2023-02-15T20:39:15;8.80;99.90
20833;DHT22;56075;51.264;7.150;2023-02-15T20:41:47;8.50;99.90
20833;DHT22;56075;51.264;7.150;2023-02-15T20:46:54;8.60;99.90
20833;DHT22;56075;51.264;7.150;2023-02-15T20:49:26;8.50;99.90
20833;DHT22;56075;51.264;7.150;2023-02-15T20:51:57;8.50;99.90
20833;DHT22;56075;51.264;7.150;2023-02-15T20:57:04;8.50;99.90
20833;DHT22;56075;51.264;7.150;2023-02-15T20:59:36;8.70;99.90
20833;DHT22;56075;51.264;7.150;2023-02-15T21:02:18;8.50;99.90
20833;DHT22;56075;51.264;7.150;2023-02-15T21:04:50;8.60;99.90
20833;DHT22;56075;51.264;7.150;2023-02-15T21:09:53;8.20;99.90
20833;DHT22;56075;51.264;7.150;2023-02-15T21:12:25;8.10;99.90
20833;DHT22;56075;51.264;7.150;2023-02-15T21:14:56;8.30;99.90
20833;DHT22;56075;51.264;7.150;2023-02-15T21:17:27;8.30;99.90
20833;DHT22;56075;51.264;7.150;2023-02-15T21:19:58;8.40;99.90
20833;DHT22;56075;51.264;7.150;2023-02-15T21:25:17;8.20;99.90
20833;DHT22;56075;51.264;7.150;2023-02-15T21:30:22;8.40;99.90
20833;DHT22;56075;51.264;7.150;2023-02-15T21:32:54;8.40;99.90
20833;DHT22;56075;51.264;7.150;2023-02-15T21:35:27;8.10;99.90
20833;DHT22;56075;51.264;7.150;2023-02-15T21:40:30;7.80;99.90
20833;DHT22;56075;51.264;7.150;2023-02-15T21:43:04;8.30;99.90
20833;DHT22;56075;51.264;7.150;2023-02-15T21:45:54;8.40;99.90
20833;DHT22;56075;51.264;7.150;2023-02-15T21:48:45;8.20;99.90
20833;DHT22;56075;51.264;7.150;2023-02-15T21:51:16;8.20;99.90
20833;DHT22;56075;51.264;7.150;2023-02-15T21:54:12;8.30;99.90
20833;DHT22;56075;51.264;7.150;2023-02-15T21:56:45;8.20;99.90
20833;DHT22;56075;51.264;7.150;2023-02-15T21:59:18;8.10;99.90
20833;DHT22;56075;51.264;7.150;2023-02-15T22:04:25;8.20;99.90
20833;DHT22;56075;51.264;7.150;2023-02-15T22:06:57;8.00;99.90
20833;DHT22;56075;51.264;7.150;2023-02-15T22:09:29;7.60;99.90
20833;DHT22;56075;51.264;7.150;2023-02-15T22:12:01;8.00;99.90
20833;DHT22;56075;51.264;7.150;2023-02-15T22:14:33;8.00;99.90
20833;DHT22;56075;51.264;7.150;2023-02-15T22:17:17;7.90;99.90
20833;DHT22;56075;51.264;7.150;2023-02-15T22:24:52;8.00;99.90
20833;DHT22;56075;51.264;7.150;2023-02-15T22:27:25;7.60;99.90
20833;DHT22;56075;51.264;7.150;2023-02-15T22:35:00;7.70;99.90
20833;DHT22;56075;51.264;7.150;2023-02-15T22:37:31;7.60;99.90
20833;DHT22;56075;51.264;7.150;2023-02-15T22:40:03;7.40;99.90
20833;DHT22;56075;51.264;7.150;2023-02-15T22:47:48;7.20;99.90
20833;DHT22;56075;51.264;7.150;2023-02-15T22:50:23;7.30;99.90
20833;DHT22;56075;51.264;7.150;2023-02-15T22:55:31;7.00;99.90
20833;DHT22;56075;51.264;7.150;2023-02-15T23:00:38;7.00;99.90
20833;DHT22;56075;51.264;7.150;2023-02-15T23:05:49;6.80;99.90
20833;DHT22;56075;51.264;7.150;2023-02-15T23:08:21;6.50;99.90
20833;DHT22;56075;51.264;7.150;2023-02-15T23:13:30;6.50;99.90
20833;DHT22;56075;51.264;7.150;2023-02-15T23:18:40;6.40;99.90
20833;DHT22;56075;51.264;7.150;2023-02-15T23:21:22;6.40;99.90
20833;DHT22;56075;51.264;7.150;2023-02-15T23:23:58;6.30;99.90
20833;DHT22;56075;51.264;7.150;2023-02-15T23:29:12;6.10;99.90
20833;DHT22;56075;51.264;7.150;2023-02-15T23:31:46;6.20;99.90
20833;DHT22;56075;51.264;7.150;2023-02-15T23:44:47;6.00;99.90
20833;DHT22;56075;51.264;7.150;2023-02-15T23:47:24;6.00;99.90
20833;DHT22;56075;51.264;7.150;2023-02-15T23:50:24;5.80;99.90
20833;DHT22;56075;51.264;7.150;2023-02-15T23:52:56;5.50;99.90
20833;DHT22;56075;51.264;7.150;2023-02-15T23:58:15;5.60;99.90
